Time;durP1;ratioP1;P1;durP2;ratioP2;P2;SDS_P1;SDS_P2;PMS_P1;PMS_P2;Temp;Humidity;BMP_temperature;BMP_pressure;BME280_temperature;BME280_humidity;BME280_pressure;Samples;Min_cycle;Max_cycle;Signal;HPM_P1;HPM_P2
2022/07/06 00:01:32;;;;;;;5.55;2.05;;;;;;;;;;5092844;28;20481;-78
2022/07/06 00:03:58;;;;;;;10.60;2.10;;;;;;;;;;5092960;28;20426;-78
2022/07/06 00:06:24;;;;;;;3.42;1.50;;;;;;;;;;5074751;28;20664;-78
2022/07/06 00:08:51;;;;;;;3.92;1.70;;;;;;;;;;5092018;28;20420;-78
2022/07/06 00:11:17;;;;;;;4.88;1.65;;;;;;;;;;5091741;28;20406;-78
2022/07/06 00:13:43;;;;;;;5.13;1.90;;;;;;;;;;5091679;28;20406;-78
2022/07/06 00:16:09;;;;;;;6.35;1.67;;;;;;;;;;5074615;28;20438;-78
2022/07/06 00:18:35;;;;;;;4.25;1.40;;;;;;;;;;5092564;28;20406;-78
2022/07/06 00:21:01;;;;;;;5.50;1.75;;;;;;;;;;5074550;28;20414;-78
2022/07/06 00:23:27;;;;;;;3.33;1.50;;;;;;;;;;5074227;28;20430;-78
2022/07/06 00:25:53;;;;;;;4.57;1.70;;;;;;;;;;5091333;28;20398;-78
2022/07/06 00:28:19;;;;;;;5.07;1.80;;;;;;;;;;5074532;28;20409;-78
2022/07/06 00:30:45;;;;;;;6.60;1.83;;;;;;;;;;5091170;28;20398;-78
2022/07/06 00:33:12;;;;;;;5.43;1.70;;;;;;;;;;5092220;28;20394;-78
2022/07/06 00:35:38;;;;;;;4.15;1.70;;;;;;;;;;5090906;28;20398;-78
2022/07/06 00:38:04;;;;;;;6.45;1.80;;;;;;;;;;5073516;28;20437;-78
2022/07/06 00:40:30;;;;;;;4.82;1.70;;;;;;;;;;5090991;28;20432;-78
2022/07/06 00:42:56;;;;;;;6.40;1.50;;;;;;;;;;5090816;28;20394;-78
2022/07/06 00:45:23;;;;;;;5.13;1.40;;;;;;;;;;5091976;28;20451;-78
2022/07/06 00:47:49;;;;;;;6.18;1.90;;;;;;;;;;5092080;28;20424;-78
2022/07/06 00:50:22;;;;;;;5.60;1.50;;;;;;;;;;5090715;28;20398;-78
2022/07/06 00:52:50;;;;;;;5.00;1.70;;;;;;;;;;5091981;28;20394;-78
2022/07/06 00:55:18;;;;;;;5.07;1.70;;;;;;;;;;5092090;28;20394;-78
2022/07/06 00:57:44;;;;;;;5.30;1.60;;;;;;;;;;5125012;27;20426;-78
2022/07/06 01:00:12;;;;;;;5.63;1.88;;;;;;;;;;5090713;28;20796;-78
2022/07/06 01:02:38;;;;;;;5.45;1.88;;;;;;;;;;5091797;28;20401;-78
2022/07/06 01:05:04;;;;;;;5.75;1.90;;;;;;;;;;5090679;28;20398;-78
2022/07/06 01:07:31;;;;;;;5.28;1.85;;;;;;;;;;5091901;28;20405;-78
2022/07/06 01:09:57;;;;;;;7.22;2.03;;;;;;;;;;5090378;28;20404;-78
2022/07/06 01:12:24;;;;;;;4.87;1.93;;;;;;;;;;5073491;28;20408;-78
2022/07/06 01:14:50;;;;;;;5.88;1.73;;;;;;;;;;5091577;28;20513;-78
2022/07/06 01:17:17;;;;;;;6.15;2.00;;;;;;;;;;5090208;28;20394;-78
2022/07/06 01:19:43;;;;;;;7.60;2.20;;;;;;;;;;5090337;28;20961;-78
2022/07/06 01:22:10;;;;;;;9.40;1.88;;;;;;;;;;5091755;28;20436;-78
2022/07/06 01:24:36;;;;;;;8.20;2.03;;;;;;;;;;5090279;28;20420;-78
2022/07/06 01:27:04;;;;;;;5.55;1.70;;;;;;;;;;5073664;28;20394;-78
2022/07/06 01:29:30;;;;;;;4.95;1.98;;;;;;;;;;5091544;28;20687;-78
2022/07/06 01:31:56;;;;;;;6.78;2.05;;;;;;;;;;5091343;28;20402;-78
2022/07/06 01:34:22;;;;;;;2.80;1.58;;;;;;;;;;5091357;28;20394;-79
2022/07/06 01:36:48;;;;;;;4.50;2.17;;;;;;;;;;5073278;28;20410;-78
2022/07/06 01:39:15;;;;;;;4.60;1.70;;;;;;;;;;5090313;28;20422;-78
2022/07/06 01:41:41;;;;;;;5.05;2.05;;;;;;;;;;5090044;28;20407;-78
2022/07/06 01:44:07;;;;;;;6.18;1.70;;;;;;;;;;5090224;28;20398;-78
2022/07/06 01:46:33;;;;;;;6.27;1.70;;;;;;;;;;5090202;28;20445;-78
2022/07/06 01:48:59;;;;;;;4.80;1.75;;;;;;;;;;5073230;28;20438;-79
2022/07/06 01:51:26;;;;;;;3.35;1.63;;;;;;;;;;5128231;27;20406;-79
2022/07/06 01:53:52;;;;;;;5.30;1.90;;;;;;;;;;5077474;28;20440;-78
2022/07/06 01:56:19;;;;;;;7.35;2.00;;;;;;;;;;5094277;28;20424;-78
2022/07/06 01:58:46;;;;;;;5.07;2.00;;;14.90;99.90;;;;;;5094075;28;20448;-78
2022/07/06 02:01:14;;;;;;;5.80;1.90;;;;;;;;;;5093966;28;20393;-78
2022/07/06 02:03:40;;;;;;;4.93;1.80;;;;;;;;;;5077319;28;20413;-78
2022/07/06 02:06:06;;;;;;;7.97;1.85;;;;;;;;;;5093799;28;20393;-78
2022/07/06 02:08:33;;;;;;;4.80;1.73;;;;;;;;;;5076832;28;20409;-78
2022/07/06 02:10:59;;;;;;;5.60;1.83;;;;;;;;;;5093792;28;20390;-78
2022/07/06 02:13:25;;;;;;;4.70;1.80;;;;;;;;;;5094879;28;20462;-78
2022/07/06 02:15:52;;;;;;;5.85;1.98;;;;;;;;;;5093529;28;20398;-78
2022/07/06 02:18:18;;;;;;;5.50;1.63;;;;;;;;;;5077021;28;20444;-78
2022/07/06 02:20:44;;;;;;;5.15;1.58;;;;;;;;;;5093953;28;20386;-78
2022/07/06 02:23:10;;;;;;;5.07;1.70;;;;;;;;;;5093588;28;20488;-78
2022/07/06 02:25:36;;;;;;;6.43;1.60;;;;;;;;;;5076597;28;20409;-78
2022/07/06 02:28:02;;;;;;;5.97;1.80;;;;;;;;;;5094580;28;20426;-78
2022/07/06 02:30:28;;;;;;;5.55;1.38;;;;;;;;;;5094539;28;20429;-79
2022/07/06 02:32:54;;;;;;;5.20;1.50;;;;;;;;;;5093540;28;20416;-78
2022/07/06 02:35:20;;;;;;;5.22;1.50;;;;;;;;;;5076500;28;20920;-78
2022/07/06 02:37:46;;;;;;;6.03;1.90;;;;;;;;;;5094334;28;20437;-78
2022/07/06 02:40:12;;;;;;;7.18;1.40;;;;;;;;;;5094832;28;20456;-78
2022/07/06 02:42:38;;;;;;;5.93;1.50;;;;;;;;;;5094276;28;20447;-78
2022/07/06 02:45:05;;;;;;;5.80;1.60;;;;;;;;;;5094632;28;20402;-78
2022/07/06 02:47:31;;;;;;;9.88;1.85;;;;;;;;;;5094318;28;20434;-78
2022/07/06 02:49:57;;;;;;;6.20;1.50;;;;;;;;;;5094356;28;20889;-78
2022/07/06 02:52:23;;;;;;;4.45;1.40;;;;;;;;;;5094284;28;20750;-82
2022/07/06 02:54:49;;;;;;;6.55;1.77;;;;;;;;;;5093111;28;20781;-82
2022/07/06 02:57:15;;;;;;;6.70;1.42;;;14.60;99.90;;;;;;5093043;28;20397;-82
2022/07/06 02:59:42;;;;;;;7.78;1.60;;;;;;;;;;5127050;27;20877;-82
2022/07/06 03:02:08;;;;;;;5.60;1.37;;;;;;;;;;5092898;28;20538;-82
2022/07/06 03:04:34;;;;;;;6.13;1.52;;;14.80;99.90;;;;;;5093030;28;20433;-82
2022/07/06 03:07:00;;;;;;;4.72;1.30;;;;;;;;;;5076347;28;20742;-82
2022/07/06 03:09:27;;;;;;;6.25;1.38;;;;;;;;;;5093269;28;20394;-82
2022/07/06 03:11:53;;;;;;;6.60;1.70;;;;;;;;;;5092648;28;20455;-82
2022/07/06 03:14:19;;;;;;;7.32;1.75;;;;;;;;;;5075809;28;20394;-82
2022/07/06 03:16:45;;;;;;;4.35;1.65;;;;;;;;;;5075879;28;20528;-82
2022/07/06 03:19:11;;;;;;;5.68;1.40;;;;;;;;;;5092590;28;21062;-82
2022/07/06 03:21:38;;;;;;;6.05;1.30;;;;;;;;;;5075758;28;20398;-82
2022/07/06 03:24:04;;;;;;;4.68;1.40;;;;;;;;;;5092252;28;20485;-82
2022/07/06 03:26:30;;;;;;;6.10;1.43;;;;;;;;;;5092444;28;20394;-82
2022/07/06 03:28:56;;;;;;;5.80;1.33;;;;;;;;;;5092502;28;20394;-82
2022/07/06 03:31:22;;;;;;;6.53;1.40;;;;;;;;;;5092217;28;20434;-82
2022/07/06 03:33:48;;;;;;;5.60;1.50;;;;;;;;;;5092466;28;20852;-82
2022/07/06 03:36:15;;;;;;;6.60;1.40;;;;;;;;;;5091883;28;20898;-82
2022/07/06 03:38:41;;;;;;;4.90;1.50;;;;;;;;;;5092183;28;20479;-82
2022/07/06 03:41:07;;;;;;;4.32;1.20;;;;;;;;;;5091802;28;20398;-82
2022/07/06 03:43:33;;;;;;;7.15;1.70;;;;;;;;;;5074944;28;20924;-82
2022/07/06 03:45:59;;;;;;;3.92;1.08;;;;;;;;;;5075123;28;20486;-82
2022/07/06 03:48:26;;;;;;;5.95;1.45;;;;;;;;;;5091784;28;21155;-82
2022/07/06 03:50:52;;;;;;;6.38;1.23;;;;;;;;;;5075112;28;20425;-82
2022/07/06 03:53:18;;;;;;;7.25;1.20;;;;;;;;;;5075243;28;20402;-82
2022/07/06 03:56:27;;;;;;;4.95;1.40;;;;;;;;;;5074883;28;20417;-82
2022/07/06 03:58:30;;;;;;;4.47;1.20;;;;;;;;;;5091557;28;20418;-84
2022/07/06 04:00:56;;;;;;;4.68;1.27;;;;;;;;;;5074869;28;20535;-82
2022/07/06 04:03:22;;;;;;;4.78;1.40;;;;;;;;;;5074889;28;20402;-83
2022/07/06 04:05:48;;;;;;;6.60;1.38;;;;;;;;;;5091534;28;20409;-83
2022/07/06 04:08:14;;;;;;;8.77;1.45;;;;;;;;;;5091499;28;20429;-83
2022/07/06 04:10:40;;;;;;;3.75;1.60;;;;;;;;;;5091656;28;20424;-83
2022/07/06 04:13:06;;;;;;;4.63;1.23;;;;;;;;;;5090946;28;20755;-83
2022/07/06 04:15:32;;;;;;;4.68;1.42;;;;;;;;;;5074863;28;20820;-83
2022/07/06 04:17:58;;;;;;;6.57;1.30;;;;;;;;;;5074644;28;20478;-83
2022/07/06 04:20:25;;;;;;;5.85;1.33;;;14.00;99.90;;;;;;5091257;28;20906;-82
2022/07/06 04:22:51;;;;;;;6.20;1.33;;;;;;;;;;5074592;28;20778;-83
2022/07/06 04:25:18;;;;;;;5.30;1.20;;;;;;;;;;5074497;28;20394;-83
2022/07/06 04:27:44;;;;;;;7.63;1.38;;;;;;;;;;5091270;28;20850;-82
2022/07/06 04:30:10;;;;;;;3.90;1.30;;;;;;;;;;5074256;28;20404;-83
2022/07/06 04:32:36;;;;;;;5.22;1.38;;;;;;;;;;5091011;28;20441;-82
2022/07/06 04:35:04;;;;;;;6.85;1.70;;;14.30;99.90;;;;;;5090944;28;20433;-83
2022/07/06 04:37:30;;;;;;;4.93;1.30;;;;;;;;;;5074436;28;20913;-83
2022/07/06 04:39:56;;;;;;;5.73;1.57;;;;;;;;;;5091477;28;20398;-83
2022/07/06 04:42:22;;;;;;;6.07;1.80;;;;;;;;;;5090980;28;20394;-83
2022/07/06 04:44:48;;;;;;;5.82;1.42;;;;;;;;;;5073844;28;20441;-83
2022/07/06 04:47:15;;;;;;;6.20;1.50;;;;;;;;;;5073953;28;20394;-83
2022/07/06 04:49:41;;;;;;;5.50;1.40;;;;;;;;;;5091252;28;20430;-83
2022/07/06 04:52:07;;;;;;;5.93;1.40;;;;;;;;;;5074049;28;20394;-82
2022/07/06 04:54:34;;;;;;;8.75;1.42;;;;;;;;;;5074088;28;20393;-83
2022/07/06 04:57:00;;;;;;;4.55;1.63;;;;;;;;;;5074271;28;20394;-83
2022/07/06 04:59:26;;;;;;;5.47;1.58;;;;;;;;;;5090565;28;20991;-83
2022/07/06 05:01:52;;;;;;;5.47;1.53;;;;;;;;;;5108061;28;20475;-82
2022/07/06 05:04:19;;;;;;;7.47;1.50;;;;;;;;;;5090523;28;20459;-83
2022/07/06 05:06:45;;;;;;;6.70;1.50;;;;;;;;;;5073654;28;20402;-82
2022/07/06 05:09:12;;;;;;;6.00;1.42;;;;;;;;;;5090536;28;20398;-83
2022/07/06 05:11:38;;;;;;;4.18;1.30;;;;;;;;;;5073832;28;20433;-83
2022/07/06 05:14:04;;;;;;;3.15;1.13;;;;;;;;;;5073999;28;20402;-83
2022/07/06 05:16:31;;;;;;;8.98;1.50;;;;;;;;;;5073815;28;20402;-83
2022/07/06 05:18:57;;;;;;;5.07;1.40;;;;;;;;;;5090371;28;20959;-82
2022/07/06 05:21:23;;;;;;;5.03;1.10;;;;;;;;;;5073910;28;20405;-83
2022/07/06 05:23:49;;;;;;;4.35;1.30;;;;;;;;;;5090670;28;20397;-83
2022/07/06 05:26:15;;;;;;;3.30;1.20;;;;;;;;;;5090629;28;20394;-81
2022/07/06 05:28:41;;;;;;;4.43;1.10;;;;;;;;;;5090211;28;20800;-81
2022/07/06 05:31:07;;;;;;;6.60;1.20;;;;;;;;;;5073655;28;20811;-81
2022/07/06 05:33:33;;;;;;;4.97;1.15;;;;;;;;;;5090321;28;20402;-81
2022/07/06 05:35:59;;;;;;;3.88;1.23;;;;;;;;;;5089961;28;20416;-80
2022/07/06 05:38:25;;;;;;;5.30;1.30;;;;;;;;;;5090508;28;20445;-82
2022/07/06 05:40:51;;;;;;;6.97;1.35;;;;;;;;;;5090423;28;20803;-82
2022/07/06 05:43:18;;;;;;;7.45;1.40;;;;;;;;;;5073099;28;20398;-82
2022/07/06 05:45:44;;;;;;;5.47;1.40;;;;;;;;;;5073423;28;20450;-81
2022/07/06 05:50:55;;;;;;;5.00;1.10;;;;;;;;;;5124052;28;20406;-81
2022/07/06 05:53:21;;;;;;;6.35;1.30;;;;;;;;;;5073385;28;20424;-81
2022/07/06 05:55:47;;;;;;;3.17;1.05;;;14.70;99.90;;;;;;5073296;28;20797;-82
2022/07/06 05:58:13;;;;;;;6.28;1.20;;;;;;;;;;5123959;28;20774;-81
2022/07/06 06:00:39;;;;;;;3.13;1.10;;;;;;;;;;5090068;28;20762;-82
2022/07/06 06:03:05;;;;;;;5.28;1.20;;;;;;;;;;5090018;28;20877;-81
2022/07/06 06:05:31;;;;;;;5.88;1.42;;;;;;;;;;5090179;28;20758;-82
2022/07/06 06:07:58;;;;;;;5.43;1.30;;;;;;;;;;5090682;28;20451;-82
2022/07/06 06:10:25;;;;;;;3.33;1.20;;;;;;;;;;5073405;28;20430;-81
2022/07/06 06:12:51;;;;;;;4.28;1.10;;;;;;;;;;5073386;28;20408;-82
2022/07/06 06:15:17;;;;;;;5.78;1.48;;;;;;;;;;5089817;28;20406;-81
2022/07/06 06:17:44;;;;;;;5.15;1.20;;;;;;;;;;5089973;28;20483;-75
2022/07/06 06:20:11;;;;;;;4.05;1.70;;;;;;;;;;5090967;28;20436;-77
2022/07/06 06:22:46;;;;;;;6.28;1.20;;;;;;;;;;5091052;28;20447;-77
2022/07/06 06:25:13;;;;;;;5.23;1.40;;;;;;;;;;5091014;28;20870;-77
2022/07/06 06:27:39;;;;;;;5.47;1.40;;;;;;;;;;5090958;28;20398;-77
2022/07/06 06:30:05;;;;;;;4.47;1.20;;;;;;;;;;5090991;28;20397;-77
2022/07/06 06:32:31;;;;;;;6.03;1.50;;;;;;;;;;5072885;28;20913;-77
2022/07/06 06:34:58;;;;;;;5.95;1.30;;;;;;;;;;5090960;28;20451;-77
2022/07/06 06:37:24;;;;;;;3.95;1.33;;;;;;;;;;5093085;28;20872;-77
2022/07/06 06:39:50;;;;;;;5.30;1.13;;;;;;;;;;5094579;28;20402;-77
2022/07/06 06:42:16;;;;;;;4.47;1.10;;;;;;;;;;5094345;28;20398;-77
2022/07/06 06:44:42;;;;;;;4.97;1.57;;;;;;;;;;5094753;28;20510;-76
2022/07/06 06:47:08;;;;;;;5.72;1.15;;;;;;;;;;5094343;28;20394;-77
2022/07/06 06:49:34;;;;;;;5.88;1.65;;;;;;;;;;5094422;28;20889;-77
2022/07/06 06:52:00;;;;;;;3.90;1.20;;;;;;;;;;5076197;28;20398;-76
2022/07/06 06:54:26;;;;;;;4.88;1.20;;;;;;;;;;5094252;28;20449;-77
2022/07/06 06:56:52;;;;;;;4.78;1.20;;;;;;;;;;5094097;28;20439;-77
2022/07/06 06:59:18;;;;;;;4.18;1.10;;;;;;;;;;5094150;28;20496;-77
2022/07/06 07:01:45;;;;;;;8.05;1.33;;;;;;;;;;5093164;28;20410;-77
2022/07/06 07:04:11;;;;;;;5.95;1.27;;;;;;;;;;5093222;28;20464;-77
2022/07/06 07:06:37;;;;;;;4.72;1.20;;;;;;;;;;5093961;28;20394;-76
2022/07/06 07:09:04;;;;;;;4.40;1.00;;;;;;;;;;5093914;28;20401;-77
2022/07/06 07:11:31;;;;;;;5.33;1.30;;;;;;;;;;5126695;27;20943;-76
2022/07/06 07:13:57;;;;;;;5.05;1.48;;;;;;;;;;5093834;28;20463;-77
2022/07/06 07:16:26;;;;;;;5.13;1.05;;;;;;;;;;5075814;28;20406;-76
2022/07/06 07:18:52;;;;;;;6.22;1.20;;;;;;;;;;5092355;28;20422;-77
2022/07/06 07:21:18;;;;;;;4.57;1.00;;;;;;;;;;5092641;28;20410;-77
2022/07/06 07:23:44;;;;;;;5.05;1.23;;;;;;;;;;5092430;28;20398;-76
2022/07/06 07:26:10;;;;;;;5.15;0.90;;;;;;;;;;5092464;28;20861;-77
2022/07/06 07:28:36;;;;;;;3.83;1.00;;;;;;;;;;5092625;28;20793;-77
2022/07/06 07:31:03;;;;;;;3.78;0.82;;;;;;;;;;5109535;28;20479;-77
2022/07/06 07:33:29;;;;;;;3.55;0.95;;;;;;;;;;5092375;28;20410;-77
2022/07/06 07:35:55;;;;;;;2.75;1.27;;;;;;;;;;5109352;28;20955;-78
2022/07/06 07:38:21;;;;;;;4.47;1.00;;;;;;;;;;5108965;28;20834;-78
2022/07/06 07:40:47;;;;;;;3.50;1.03;;;;;;;;;;5075374;28;20856;-78
2022/07/06 07:43:13;;;;;;;4.55;1.00;;;;;;;;;;5093511;28;20401;-77
2022/07/06 07:45:40;;;;;;;3.70;1.00;;;;;;;;;;5075055;28;20427;-77
2022/07/06 07:48:06;;;;;;;3.63;1.05;;;;;;;;;;5092179;28;20893;-77
2022/07/06 07:50:32;;;;;;;5.68;1.00;;;;;;;;;;5091902;28;20413;-77
2022/07/06 07:52:58;;;;;;;4.30;1.30;;;;;;;;;;5092951;28;20799;-78
2022/07/06 07:55:24;;;;;;;5.28;0.90;;;;;;;;;;5074937;28;20940;-77
2022/07/06 07:57:50;;;;;;;4.47;1.17;;;;;;;;;;5074756;28;20433;-77
2022/07/06 08:00:17;;;;;;;5.15;1.30;;;;;;;;;;5091805;28;20690;-78
2022/07/06 08:02:43;;;;;;;3.47;0.90;;;;;;;;;;5093028;28;20394;-78
2022/07/06 08:05:13;;;;;;;3.97;1.33;;;;;;;;;;5092962;28;20430;-77
2022/07/06 08:07:39;;;;;;;3.95;1.08;;;;;;;;;;5092783;28;20402;-77
2022/07/06 08:10:06;;;;;;;2.65;1.05;;;;;;;;;;5074613;28;20398;-77
2022/07/06 08:12:32;;;;;;;2.83;0.90;;;;;;;;;;5074504;28;20751;-77
2022/07/06 08:14:58;;;;;;;2.55;0.80;;;;;;;;;;5092701;28;20398;-77
2022/07/06 08:17:25;;;;;;;3.15;0.80;;;;;;;;;;5092648;28;20394;-76
2022/07/06 08:19:51;;;;;;;3.10;0.73;;;;;;;;;;5092142;28;20475;-77
2022/07/06 08:22:17;;;;;;;4.55;0.90;;;;;;;;;;5074005;28;20398;-77
2022/07/06 08:24:43;;;;;;;2.20;0.70;;;;;;;;;;5090972;28;20390;-77
2022/07/06 08:27:09;;;;;;;4.40;0.80;;;;;;;;;;5090999;28;20398;-77
2022/07/06 08:29:35;;;;;;;3.92;0.88;;;;;;;;;;5092015;28;20478;-77
2022/07/06 08:32:01;;;;;;;4.35;1.05;;;;;;;;;;5091854;28;20496;-77
2022/07/06 08:34:28;;;;;;;3.20;0.90;;;;;;;;;;5091937;28;20390;-77
2022/07/06 08:36:54;;;;;;;3.63;0.80;;;;;;;;;;5090760;28;20416;-77
2022/07/06 08:39:19;;;;;;;2.13;0.70;;;18.50;99.90;;;;;;5092252;28;20451;-77
2022/07/06 08:41:47;;;;;;;4.93;0.90;;;18.70;99.90;;;;;;5125130;27;20398;-75
2022/07/06 08:44:14;;;;;;;3.97;0.98;;;;;;;;;;5091008;28;20799;-81
2022/07/06 08:46:40;;;;;;;3.53;1.08;;;;;;;;;;5090828;28;20905;-81
2022/07/06 08:49:07;;;;;;;4.82;1.05;;;18.40;99.90;;;;;;5091153;28;20796;-81
2022/07/06 08:51:35;;;;;;;2.53;0.90;;;18.40;99.90;;;;;;5125253;27;20916;-81
2022/07/06 08:54:02;;;;;;;3.40;0.90;;;18.60;99.90;;;;;;5090829;28;20402;-81
2022/07/06 08:56:30;;;;;;;3.97;0.80;;;;;;;;;;5125166;27;20425;-80
2022/07/06 08:58:56;;;;;;;2.50;0.85;;;18.20;99.90;;;;;;5073394;28;20816;-81
2022/07/06 09:01:23;;;;;;;2.70;1.10;;;;;;;;;;5073777;28;20474;-81
2022/07/06 09:03:50;;;;;;;3.65;1.10;;;18.40;99.90;;;;;;5090656;28;20479;-81
2022/07/06 09:06:24;;;;;;;4.53;1.00;;;;;;;;;;5124815;27;20398;-81
2022/07/06 09:08:50;;;;;;;4.13;1.20;;;;;;;;;;5124828;27;20402;-81
2022/07/06 09:11:16;;;;;;;6.32;1.10;;;18.50;99.90;;;;;;5091080;28;20416;-81
2022/07/06 09:13:42;;;;;;;2.70;0.90;;;;;;;;;;5125134;27;20905;-81
2022/07/06 09:16:16;;;;;;;4.43;0.98;;;18.70;99.90;;;;;;5090480;28;20529;-81
2022/07/06 09:18:46;;;;;;;3.30;0.85;;;;;;;;;;5073373;28;20987;-81
2022/07/06 09:21:11;;;;;;;3.10;0.80;;;19.10;99.90;;;;;;5073631;28;20398;-81
2022/07/06 09:23:38;;;;;;;3.10;0.90;;;19.40;99.90;;;;;;5090428;28;20440;-81
2022/07/06 09:26:05;;;;;;;4.70;0.90;;;;;;;;;;5107206;28;20488;-81
2022/07/06 09:28:44;;;;;;;3.50;0.80;;;19.80;99.90;;;;;;5090305;28;20397;-81
2022/07/06 09:31:10;;;;;;;1.73;0.80;;;19.60;99.90;;;;;;5073823;28;20402;-81
2022/07/06 09:33:37;;;;;;;3.10;0.90;;;19.50;99.90;;;;;;5124671;28;20401;-81
2022/07/06 09:36:03;;;;;;;5.15;1.02;;;19.30;99.90;;;;;;5124257;28;20440;-81
2022/07/06 09:38:29;;;;;;;4.00;1.17;;;;;;;;;;5107085;28;20429;-81
2022/07/06 09:40:55;;;;;;;5.07;1.08;;;;;;;;;;5091728;28;20437;-81
2022/07/06 09:43:23;;;;;;;3.95;0.80;;;19.60;99.90;;;;;;5073381;28;20431;-81
2022/07/06 09:45:54;;;;;;;5.32;1.77;;;19.60;99.90;;;;;;5124500;28;20394;-81
2022/07/06 09:48:27;;;;;;;2.38;0.80;;;19.80;99.90;;;;;;5107061;28;20405;-81
2022/07/06 09:51:06;;;;;;;5.15;0.88;;;19.70;99.90;;;;;;5107363;28;20402;-81
2022/07/06 09:53:35;;;;;;;1.98;0.70;;;19.60;99.90;;;;;;5090254;28;20576;-81
2022/07/06 09:56:05;;;;;;;2.55;0.80;;;;;;;;;;5107604;28;20463;-81
2022/07/06 09:58:31;;;;;;;3.60;0.88;;;;;;;;;;5124097;28;20491;-81
2022/07/06 10:00:57;;;;;;;3.33;0.93;;;;;;;;;;5073436;28;20406;-81
2022/07/06 10:03:24;;;;;;;4.22;0.95;;;19.50;99.90;;;;;;5090078;28;20402;-81
2022/07/06 10:05:49;;;;;;;4.07;0.95;;;19.50;99.90;;;;;;5124128;28;20402;-81
2022/07/06 10:08:17;;;;;;;2.97;0.88;;;20.10;99.90;;;;;;5089931;28;20428;-81
2022/07/06 10:10:43;;;;;;;3.05;0.80;;;;;;;;;;5125483;27;20398;-82
2022/07/06 10:13:10;;;;;;;2.85;0.88;;;19.70;99.90;;;;;;5093598;28;20405;-81
2022/07/06 10:15:38;;;;;;;2.53;0.80;;;19.80;99.90;;;;;;5077335;28;20455;-81
2022/07/06 10:18:06;;;;;;;3.67;1.00;;;19.80;99.90;;;;;;5127718;27;20956;-81
2022/07/06 10:20:36;;;;;;;5.30;1.10;;;20.00;99.90;;;;;;5127771;27;20529;-80
2022/07/06 10:23:03;;;;;;;4.63;1.00;;;;;;;;;;5093452;28;20402;-81
2022/07/06 10:25:31;;;;;;;4.22;1.13;;;20.30;99.90;;;;;;5076551;28;20430;-81
2022/07/06 10:27:57;;;;;;;5.45;0.98;;;19.90;99.90;;;;;;5076666;28;20492;-81
2022/07/06 10:30:23;;;;;;;2.97;0.90;;;;;;;;;;5110706;28;20488;-81
2022/07/06 10:32:50;;;;;;;2.67;1.00;;;20.20;99.90;;;;;;5093390;28;20947;-81
2022/07/06 10:35:18;;;;;;;3.85;1.02;;;20.70;99.90;;;;;;5110549;28;20890;-81
2022/07/06 10:37:45;;;;;;;4.75;1.00;;;20.90;99.90;;;;;;5127354;27;20470;-81
2022/07/06 10:43:00;;;;;;;4.47;1.10;;;21.10;99.90;;;;;;5127648;27;20451;-81
2022/07/06 10:45:29;;;;;;;3.83;1.10;;;20.60;99.90;;;;;;5093187;28;20428;-81
2022/07/06 10:48:17;;;;;;;5.25;1.15;;;;;;;;;;5128397;27;20495;-81
2022/07/06 10:50:45;;;;;;;2.90;0.90;;;20.30;99.90;;;;;;5127324;27;20484;-81
2022/07/06 10:53:25;;;;;;;4.72;1.20;;;20.40;99.90;;;;;;5127273;27;20494;-80
2022/07/06 10:55:53;;;;;;;3.05;0.98;;;20.60;99.90;;;;;;5110009;28;20413;-81
2022/07/06 10:58:40;;;;;;;2.25;0.95;;;21.00;99.90;;;;;;5092935;28;20422;-80
2022/07/06 11:01:07;;;;;;;3.95;1.02;;;21.10;99.90;;;;;;5127298;27;20429;-81
2022/07/06 11:03:45;;;;;;;2.80;1.10;;;21.20;99.90;;;;;;5110099;28;20417;-81
2022/07/06 11:06:22;;;;;;;2.95;0.93;;;21.00;99.90;;;;;;5092927;28;20394;-81
2022/07/06 11:08:51;;;;;;;3.63;0.93;;;20.90;99.90;;;;;;5126774;27;20410;-81
2022/07/06 11:11:18;;;;;;;3.00;1.00;;;20.20;99.90;;;;;;5126821;27;20398;-81
2022/07/06 11:13:48;;;;;;;3.30;0.90;;;20.30;99.90;;;;;;5126754;27;20406;-80
2022/07/06 11:16:15;;;;;;;4.32;0.95;;;20.60;99.90;;;;;;5092540;28;20405;-81
2022/07/06 11:18:46;;;;;;;3.22;1.00;;;20.80;99.90;;;;;;5126615;27;20426;-80
2022/07/06 11:21:36;;;;;;;3.08;0.80;;;21.20;99.90;;;;;;5092648;28;20746;-80
2022/07/06 11:24:03;;;;;;;3.13;1.00;;;21.30;99.90;;;;;;5109561;28;20933;-80
2022/07/06 11:26:30;;;;;;;2.22;0.90;;;21.50;99.90;;;;;;5126866;27;20493;-80
2022/07/06 11:28:59;;;;;;;4.73;1.10;;;21.50;99.90;;;;;;5092561;28;20438;-81
2022/07/06 11:31:25;;;;;;;5.07;1.23;;;21.20;99.90;;;;;;5126841;27;20402;-81
2022/07/06 11:33:51;;;;;;;3.07;1.03;;;21.80;99.90;;;;;;5126358;27;20743;-81
2022/07/06 11:36:21;;;;;;;2.60;0.83;;;21.70;99.90;;;;;;5092297;28;20408;-80
2022/07/06 11:38:49;;;;;;;2.85;1.00;;;21.90;99.90;;;;;;5126772;27;20421;-81
2022/07/06 11:41:16;;;;;;;3.03;1.00;;;22.20;99.90;;;;;;5126205;27;20428;-81
2022/07/06 11:43:45;;;;;;;3.60;1.20;;;22.00;99.90;;;;;;5091485;28;20409;-80
2022/07/06 11:46:22;;;;;;;2.50;0.85;;;22.00;99.90;;;;;;5108578;28;20394;-80
2022/07/06 11:48:50;;;;;;;2.88;0.90;;;22.00;99.90;;;;;;5126108;27;20402;-80
2022/07/06 11:51:16;;;;;;;2.65;0.88;;;22.10;99.90;;;;;;5075520;28;20897;-80
2022/07/06 11:53:59;;;;;;;3.33;1.00;;;22.30;99.90;;;;;;5109377;28;20485;-80
2022/07/06 11:56:27;;;;;;;3.22;0.90;;;22.10;99.90;;;;;;5109852;27;20397;-80
2022/07/06 11:58:59;;;;;;;2.70;0.90;;;22.10;99.90;;;;;;5091689;28;20417;-80
2022/07/06 12:01:27;;;;;;;3.20;1.08;;;22.40;99.90;;;;;;5126078;27;20405;-80
2022/07/06 12:03:57;;;;;;;3.55;1.00;;;22.40;99.90;;;;;;5092082;28;20396;-80
2022/07/06 12:06:26;;;;;;;2.75;0.90;;;22.10;99.90;;;;;;5091986;28;20735;-80
2022/07/06 12:09:00;;;;;;;2.40;1.00;;;22.10;99.90;;;;;;5091831;28;20412;-81
2022/07/06 12:11:31;;;;;;;2.67;1.00;;;21.70;99.90;;;;;;5108995;28;20486;-80
2022/07/06 12:13:59;;;;;;;2.63;0.90;;;22.10;99.90;;;;;;5126032;27;20468;-80
2022/07/06 12:16:34;;;;;;;3.78;1.00;;;22.30;99.90;;;;;;5108630;28;20401;-81
2022/07/06 12:19:01;;;;;;;1.77;0.87;;;21.80;99.90;;;;;;5125538;27;20418;-80
2022/07/06 12:21:27;;;;;;;2.13;0.90;;;21.90;99.90;;;;;;5108660;28;20447;-80
2022/07/06 12:23:54;;;;;;;2.75;0.95;;;22.20;99.90;;;;;;5093766;28;20393;-80
2022/07/06 12:26:25;;;;;;;4.63;1.10;;;22.30;99.90;;;;;;5125684;27;20418;-80
2022/07/06 12:29:10;;;;;;;4.07;1.05;;;22.10;99.90;;;;;;5091521;28;20426;-81
2022/07/06 12:31:42;;;;;;;3.78;0.90;;;23.00;99.90;;;;;;5091364;28;20463;-80
2022/07/06 12:34:25;;;;;;;2.03;0.90;;;22.50;99.90;;;;;;5090651;28;20813;-81
2022/07/06 12:36:56;;;;;;;2.38;0.80;;;22.90;99.90;;;;;;5091214;28;20421;-81
2022/07/06 12:39:24;;;;;;;2.80;0.90;;;22.80;99.90;;;;;;5091704;28;20422;-80
2022/07/06 12:42:04;;;;;;;1.75;0.80;;;22.70;99.90;;;;;;5091313;28;20389;-80
2022/07/06 12:44:30;;;;;;;2.97;0.90;;;22.60;99.90;;;;;;5091335;28;20413;-81
2022/07/06 12:47:04;;;;;;;2.13;0.98;;;22.60;99.90;;;;;;5125484;27;20405;-81
2022/07/06 12:49:30;;;;;;;3.13;1.10;;;22.60;99.90;;;;;;5125327;27;20412;-80
2022/07/06 12:52:00;;;;;;;2.60;0.90;;;22.60;99.90;;;;;;5108048;28;20459;-81
2022/07/06 12:54:46;;;;;;;4.13;0.90;;;22.40;99.90;;;;;;5125048;27;20400;-81
2022/07/06 12:57:18;;;;;;;2.65;0.90;;;22.30;99.90;;;;;;5107887;28;20809;-81
2022/07/06 13:00:05;;;;;;;3.53;1.20;;;22.10;99.90;;;;;;5092262;28;20425;-80
2022/07/06 13:02:32;;;;;;;2.40;1.00;;;22.10;99.90;;;;;;5074197;28;20971;-80
2022/07/06 13:05:27;;;;;;;2.70;1.08;;;22.40;99.90;;;;;;5092308;28;20397;-80
2022/07/06 13:07:55;;;;;;;2.58;1.15;;;21.60;99.90;;;;;;5090848;28;20397;-80
2022/07/06 13:10:22;;;;;;;1.88;1.00;;;21.80;99.90;;;;;;5091079;28;20398;-81
2022/07/06 13:12:48;;;;;;;2.03;0.93;;;21.40;99.90;;;;;;5090923;28;20754;-81
2022/07/06 13:15:14;;;;;;;3.97;1.00;;;;;;;;;;5107793;28;20414;-80
2022/07/06 13:17:41;;;;;;;2.35;0.90;;;21.10;99.90;;;;;;5090726;28;20402;-80
2022/07/06 13:20:08;;;;;;;2.30;0.98;;;21.50;99.90;;;;;;5090738;28;20389;-81
2022/07/06 13:22:35;;;;;;;3.63;1.00;;;;;;;;;;5073840;28;20406;-80
2022/07/06 13:25:00;;;;;;;4.18;1.00;;;21.20;99.90;;;;;;5092059;28;20745;-82
2022/07/06 13:27:27;;;;;;;3.88;1.00;;;;;;;;;;5091796;28;20435;-80
2022/07/06 13:29:53;;;;;;;2.70;0.90;;;21.10;99.90;;;;;;5090707;28;20817;-81
2022/07/06 13:32:18;;;;;;;3.20;1.10;;;21.70;99.90;;;;;;5127532;27;20500;-81
2022/07/06 13:34:44;;;;;;;2.33;0.90;;;21.40;99.90;;;;;;5094311;28;20867;-81
2022/07/06 13:37:10;;;;;;;2.90;0.90;;;21.90;99.90;;;;;;5124535;28;20860;-81
2022/07/06 13:39:36;;;;;;;4.53;1.20;;;21.60;99.90;;;;;;5107279;28;20421;-81
2022/07/06 13:42:02;;;;;;;2.67;1.05;;;21.40;99.90;;;;;;5124583;28;20400;-81
2022/07/06 13:44:28;;;;;;;2.53;1.00;;;21.40;99.90;;;;;;5124427;27;20894;-81
2022/07/06 13:46:54;;;;;;;4.78;1.00;;;21.30;99.90;;;;;;5093877;28;20385;-80
2022/07/06 13:49:20;;;;;;;4.15;1.20;;;21.50;99.90;;;;;;5111759;28;20503;-81
2022/07/06 13:51:46;;;;;;;2.73;1.00;;;21.10;99.90;;;;;;5111528;28;20792;-80
2022/07/06 13:54:12;;;;;;;2.60;1.00;;;20.90;99.90;;;;;;5111642;28;20390;-82
2022/07/06 13:56:39;;;;;;;2.30;1.10;;;20.70;99.90;;;;;;5128538;27;20398;-82
2022/07/06 13:59:05;;;;;;;4.22;1.40;;;;;;;;;;5094598;28;20407;-81
2022/07/06 14:01:32;;;;;;;5.32;1.23;;;20.50;99.90;;;;;;5077586;28;20401;-81
2022/07/06 14:03:57;;;;;;;3.78;1.20;;;20.60;99.90;;;;;;5077689;28;20497;-81
2022/07/06 14:06:24;;;;;;;3.38;1.15;;;;;;;;;;5128589;27;20488;-81
2022/07/06 14:08:49;;;;;;;5.72;1.48;;;20.30;99.90;;;;;;5094258;28;20432;-81